CheckWX is a tool to help pilots better visualize weather data.  It is not intended as a substitute for an official pre-flight weather briefing.

04:17:39 UTC

KIGM METAR
Kingman Airport
Kingman, Arizona, USA
Current

27 mins ago

KIGM 270351Z AUTO 17009KT 10SM CLR 24/M04 A2999 RMK AO2 SLP085 T02441039
Observed
Jun-27 @ 03:51 UTC
Wind
  • 170° at 9 KTS
Visibility
10 SM
Flight Rules
VFR
Cloud Levels
  • Clear skies
Temperature
24°C / 75°F
Dewpoint
-4°C / 25°F
Humidity
15%
Altimeter
29.99" Hg
Pressure
1015.62 hPa
Previous

1 hour ago

KIGM 270251Z AUTO 21010KT 10SM CLR 28/M04 A2998 RMK AO2 SLP076 T02831044 53005
Observed
Jun-27 @ 02:51 UTC
Wind
  • 210° at 10 KTS
Visibility
10 SM
Flight Rules
VFR
Cloud Levels
  • Clear skies
Temperature
28°C / 82°F
Dewpoint
-4°C / 25°F
Humidity
12%
Altimeter
29.98" Hg
Pressure
1015.22 hPa
Previous

2 hours ago

KIGM 270151Z AUTO 21015KT 10SM CLR 31/M04 A2997 RMK AO2 PK WND 23026/0132 SLP073 T03061044
Observed
Jun-27 @ 01:51 UTC
Wind
  • 210° at 15 KTS
Visibility
10 SM
Flight Rules
VFR
Cloud Levels
  • Clear skies
Temperature
31°C / 88°F
Dewpoint
-4°C / 25°F
Humidity
10%
Altimeter
29.97" Hg
Pressure
1014.92 hPa